sensor_id;sensor_type;location;lat;lon;timestamp;P1;durP1;ratioP1;P2;durP2;ratioP2
15256;SDS011;7731;50.720;6.912;2023-11-19T00:00:30;1.13;;;0.73;;
15256;SDS011;7731;50.720;6.912;2023-11-19T00:03:00;1.75;;;0.90;;
15256;SDS011;7731;50.720;6.912;2023-11-19T00:05:32;1.73;;;0.90;;
15256;SDS011;7731;50.720;6.912;2023-11-19T00:08:08;1.13;;;0.80;;
15256;SDS011;7731;50.720;6.912;2023-11-19T00:10:38;1.13;;;0.90;;
15256;SDS011;7731;50.720;6.912;2023-11-19T00:13:08;1.83;;;1.10;;
15256;SDS011;7731;50.720;6.912;2023-11-19T00:15:39;1.00;;;0.90;;
15256;SDS011;7731;50.720;6.912;2023-11-19T00:18:12;0.80;;;0.70;;
15256;SDS011;7731;50.720;6.912;2023-11-19T00:20:43;0.70;;;0.60;;
15256;SDS011;7731;50.720;6.912;2023-11-19T00:23:16;0.88;;;0.70;;
15256;SDS011;7731;50.720;6.912;2023-11-19T00:25:49;0.73;;;0.40;;
15256;SDS011;7731;50.720;6.912;2023-11-19T00:28:20;2.50;;;0.57;;
15256;SDS011;7731;50.720;6.912;2023-11-19T00:30:50;0.77;;;0.60;;
15256;SDS011;7731;50.720;6.912;2023-11-19T00:33:23;1.35;;;0.70;;
15256;SDS011;7731;50.720;6.912;2023-11-19T00:35:53;1.38;;;0.70;;
15256;SDS011;7731;50.720;6.912;2023-11-19T00:38:26;1.73;;;0.80;;
15256;SDS011;7731;50.720;6.912;2023-11-19T00:40:57;1.13;;;0.80;;
15256;SDS011;7731;50.720;6.912;2023-11-19T00:43:30;0.93;;;0.82;;
15256;SDS011;7731;50.720;6.912;2023-11-19T00:46:01;1.08;;;0.75;;
15256;SDS011;7731;50.720;6.912;2023-11-19T00:48:32;1.73;;;0.70;;
15256;SDS011;7731;50.720;6.912;2023-11-19T00:51:03;0.88;;;0.70;;
15256;SDS011;7731;50.720;6.912;2023-11-19T00:53:39;0.70;;;0.68;;
15256;SDS011;7731;50.720;6.912;2023-11-19T00:56:11;1.42;;;0.60;;
15256;SDS011;7731;50.720;6.912;2023-11-19T00:58:42;0.98;;;0.60;;
15256;SDS011;7731;50.720;6.912;2023-11-19T01:01:13;1.75;;;0.70;;
15256;SDS011;7731;50.720;6.912;2023-11-19T01:03:45;1.50;;;0.80;;
15256;SDS011;7731;50.720;6.912;2023-11-19T01:06:26;0.68;;;0.60;;
15256;SDS011;7731;50.720;6.912;2023-11-19T01:08:59;1.42;;;0.73;;
15256;SDS011;7731;50.720;6.912;2023-11-19T01:11:30;0.80;;;0.50;;
15256;SDS011;7731;50.720;6.912;2023-11-19T01:14:00;0.70;;;0.40;;
15256;SDS011;7731;50.720;6.912;2023-11-19T01:16:30;0.85;;;0.40;;
15256;SDS011;7731;50.720;6.912;2023-11-19T01:19:01;0.60;;;0.30;;
15256;SDS011;7731;50.720;6.912;2023-11-19T01:21:43;1.08;;;0.50;;
15256;SDS011;7731;50.720;6.912;2023-11-19T01:24:18;0.40;;;0.30;;
15256;SDS011;7731;50.720;6.912;2023-11-19T01:26:48;0.77;;;0.50;;
15256;SDS011;7731;50.720;6.912;2023-11-19T01:29:20;0.50;;;0.40;;
15256;SDS011;7731;50.720;6.912;2023-11-19T01:31:50;1.05;;;0.40;;
15256;SDS011;7731;50.720;6.912;2023-11-19T01:34:20;0.50;;;0.40;;
15256;SDS011;7731;50.720;6.912;2023-11-19T01:36:51;0.40;;;0.30;;
15256;SDS011;7731;50.720;6.912;2023-11-19T01:39:26;0.73;;;0.40;;
15256;SDS011;7731;50.720;6.912;2023-11-19T01:41:56;0.75;;;0.35;;
15256;SDS011;7731;50.720;6.912;2023-11-19T01:44:26;0.40;;;0.30;;
15256;SDS011;7731;50.720;6.912;2023-11-19T01:46:58;1.48;;;0.50;;
15256;SDS011;7731;50.720;6.912;2023-11-19T01:49:32;0.70;;;0.40;;
15256;SDS011;7731;50.720;6.912;2023-11-19T01:52:02;0.70;;;0.45;;
15256;SDS011;7731;50.720;6.912;2023-11-19T01:54:38;0.77;;;0.60;;
15256;SDS011;7731;50.720;6.912;2023-11-19T01:57:12;1.05;;;0.60;;
15256;SDS011;7731;50.720;6.912;2023-11-19T01:59:45;0.45;;;0.45;;
15256;SDS011;7731;50.720;6.912;2023-11-19T02:02:15;1.00;;;0.55;;
15256;SDS011;7731;50.720;6.912;2023-11-19T02:04:47;1.45;;;0.43;;
15256;SDS011;7731;50.720;6.912;2023-11-19T02:07:20;0.68;;;0.50;;
15256;SDS011;7731;50.720;6.912;2023-11-19T02:09:56;0.60;;;0.60;;
15256;SDS011;7731;50.720;6.912;2023-11-19T02:12:28;0.68;;;0.60;;
15256;SDS011;7731;50.720;6.912;2023-11-19T02:15:00;0.88;;;0.50;;
15256;SDS011;7731;50.720;6.912;2023-11-19T02:17:31;1.05;;;0.60;;
15256;SDS011;7731;50.720;6.912;2023-11-19T02:20:04;1.85;;;0.88;;
15256;SDS011;7731;50.720;6.912;2023-11-19T02:22:41;2.85;;;0.90;;
15256;SDS011;7731;50.720;6.912;2023-11-19T02:25:20;1.95;;;1.08;;
15256;SDS011;7731;50.720;6.912;2023-11-19T02:28:01;1.73;;;0.80;;
15256;SDS011;7731;50.720;6.912;2023-11-19T02:30:33;2.78;;;0.90;;
15256;SDS011;7731;50.720;6.912;2023-11-19T02:33:03;1.75;;;0.75;;
15256;SDS011;7731;50.720;6.912;2023-11-19T02:35:35;2.88;;;0.60;;
15256;SDS011;7731;50.720;6.912;2023-11-19T02:38:07;1.95;;;1.10;;
15256;SDS011;7731;50.720;6.912;2023-11-19T02:40:37;2.85;;;1.00;;
15256;SDS011;7731;50.720;6.912;2023-11-19T02:43:11;2.83;;;1.17;;
15256;SDS011;7731;50.720;6.912;2023-11-19T02:45:43;3.28;;;1.00;;
15256;SDS011;7731;50.720;6.912;2023-11-19T02:48:13;4.05;;;1.00;;
15256;SDS011;7731;50.720;6.912;2023-11-19T02:50:46;3.13;;;1.20;;
15256;SDS011;7731;50.720;6.912;2023-11-19T02:53:16;5.25;;;1.55;;
15256;SDS011;7731;50.720;6.912;2023-11-19T02:55:48;5.25;;;1.65;;
15256;SDS011;7731;50.720;6.912;2023-11-19T02:58:21;2.80;;;1.05;;
15256;SDS011;7731;50.720;6.912;2023-11-19T03:00:54;3.17;;;1.20;;
15256;SDS011;7731;50.720;6.912;2023-11-19T03:03:36;5.53;;;1.63;;
15256;SDS011;7731;50.720;6.912;2023-11-19T03:06:07;6.47;;;1.75;;
15256;SDS011;7731;50.720;6.912;2023-11-19T03:08:38;3.70;;;1.42;;
15256;SDS011;7731;50.720;6.912;2023-11-19T03:11:11;7.07;;;1.80;;
15256;SDS011;7731;50.720;6.912;2023-11-19T03:13:44;6.28;;;1.55;;
15256;SDS011;7731;50.720;6.912;2023-11-19T03:16:14;4.25;;;1.33;;
15256;SDS011;7731;50.720;6.912;2023-11-19T03:18:47;6.22;;;1.50;;
15256;SDS011;7731;50.720;6.912;2023-11-19T03:21:18;5.35;;;1.45;;
15256;SDS011;7731;50.720;6.912;2023-11-19T03:23:48;5.20;;;1.85;;
15256;SDS011;7731;50.720;6.912;2023-11-19T03:26:18;5.72;;;1.48;;
15256;SDS011;7731;50.720;6.912;2023-11-19T03:28:51;6.35;;;1.98;;
15256;SDS011;7731;50.720;6.912;2023-11-19T03:31:23;5.60;;;1.65;;
15256;SDS011;7731;50.720;6.912;2023-11-19T03:33:54;4.80;;;1.70;;
15256;SDS011;7731;50.720;6.912;2023-11-19T03:36:24;6.97;;;1.92;;
15256;SDS011;7731;50.720;6.912;2023-11-19T03:39:01;4.63;;;1.67;;
15256;SDS011;7731;50.720;6.912;2023-11-19T03:41:32;5.97;;;2.08;;
15256;SDS011;7731;50.720;6.912;2023-11-19T03:44:08;5.35;;;1.95;;
15256;SDS011;7731;50.720;6.912;2023-11-19T03:46:38;6.03;;;2.15;;
15256;SDS011;7731;50.720;6.912;2023-11-19T03:49:09;7.55;;;2.08;;
15256;SDS011;7731;50.720;6.912;2023-11-19T03:51:39;7.25;;;2.10;;
15256;SDS011;7731;50.720;6.912;2023-11-19T03:54:09;7.93;;;1.95;;
15256;SDS011;7731;50.720;6.912;2023-11-19T03:56:39;7.43;;;2.25;;
15256;SDS011;7731;50.720;6.912;2023-11-19T03:59:12;6.60;;;1.80;;
15256;SDS011;7731;50.720;6.912;2023-11-19T04:01:43;6.05;;;2.10;;
15256;SDS011;7731;50.720;6.912;2023-11-19T04:04:17;7.85;;;1.85;;
15256;SDS011;7731;50.720;6.912;2023-11-19T04:06:48;6.88;;;2.03;;
15256;SDS011;7731;50.720;6.912;2023-11-19T04:09:18;6.45;;;1.70;;
15256;SDS011;7731;50.720;6.912;2023-11-19T04:11:48;5.05;;;1.90;;
15256;SDS011;7731;50.720;6.912;2023-11-19T04:14:21;6.13;;;1.67;;
15256;SDS011;7731;50.720;6.912;2023-11-19T04:16:52;5.28;;;1.50;;
15256;SDS011;7731;50.720;6.912;2023-11-19T04:19:22;4.05;;;1.98;;
15256;SDS011;7731;50.720;6.912;2023-11-19T04:21:53;4.70;;;1.98;;
15256;SDS011;7731;50.720;6.912;2023-11-19T04:24:23;7.43;;;2.40;;
15256;SDS011;7731;50.720;6.912;2023-11-19T04:26:55;6.53;;;1.88;;
15256;SDS011;7731;50.720;6.912;2023-11-19T04:29:29;5.68;;;1.95;;
15256;SDS011;7731;50.720;6.912;2023-11-19T04:32:02;6.85;;;2.13;;
15256;SDS011;7731;50.720;6.912;2023-11-19T04:34:34;7.55;;;2.05;;
15256;SDS011;7731;50.720;6.912;2023-11-19T04:37:04;5.90;;;2.08;;
15256;SDS011;7731;50.720;6.912;2023-11-19T04:39:39;6.57;;;2.00;;
15256;SDS011;7731;50.720;6.912;2023-11-19T04:42:09;10.75;;;2.65;;
15256;SDS011;7731;50.720;6.912;2023-11-19T04:44:46;7.05;;;2.00;;
15256;SDS011;7731;50.720;6.912;2023-11-19T04:47:17;6.85;;;2.67;;
15256;SDS011;7731;50.720;6.912;2023-11-19T04:49:47;6.78;;;1.95;;
15256;SDS011;7731;50.720;6.912;2023-11-19T04:52:17;7.50;;;1.85;;
15256;SDS011;7731;50.720;6.912;2023-11-19T04:54:47;6.68;;;2.03;;
15256;SDS011;7731;50.720;6.912;2023-11-19T04:57:18;9.48;;;2.40;;
15256;SDS011;7731;50.720;6.912;2023-11-19T04:59:51;8.15;;;2.40;;
15256;SDS011;7731;50.720;6.912;2023-11-19T05:02:21;8.27;;;2.58;;
15256;SDS011;7731;50.720;6.912;2023-11-19T05:04:52;9.68;;;2.58;;
15256;SDS011;7731;50.720;6.912;2023-11-19T05:07:22;7.57;;;2.50;;
15256;SDS011;7731;50.720;6.912;2023-11-19T05:09:53;12.55;;;2.20;;
15256;SDS011;7731;50.720;6.912;2023-11-19T05:12:23;7.15;;;2.22;;
15256;SDS011;7731;50.720;6.912;2023-11-19T05:14:58;11.60;;;2.45;;
15256;SDS011;7731;50.720;6.912;2023-11-19T05:17:31;6.38;;;2.03;;
15256;SDS011;7731;50.720;6.912;2023-11-19T05:20:04;9.05;;;2.65;;
15256;SDS011;7731;50.720;6.912;2023-11-19T05:22:40;9.23;;;2.28;;
15256;SDS011;7731;50.720;6.912;2023-11-19T05:25:12;9.88;;;2.85;;
15256;SDS011;7731;50.720;6.912;2023-11-19T05:27:42;11.82;;;2.95;;
15256;SDS011;7731;50.720;6.912;2023-11-19T05:30:15;8.90;;;2.50;;
15256;SDS011;7731;50.720;6.912;2023-11-19T05:32:46;10.15;;;2.65;;
15256;SDS011;7731;50.720;6.912;2023-11-19T05:35:16;10.60;;;2.70;;
15256;SDS011;7731;50.720;6.912;2023-11-19T05:37:47;11.27;;;3.15;;
15256;SDS011;7731;50.720;6.912;2023-11-19T05:40:17;8.20;;;2.85;;
15256;SDS011;7731;50.720;6.912;2023-11-19T05:42:47;8.98;;;2.92;;
15256;SDS011;7731;50.720;6.912;2023-11-19T05:45:20;12.30;;;3.38;;
15256;SDS011;7731;50.720;6.912;2023-11-19T05:47:51;12.05;;;2.88;;
15256;SDS011;7731;50.720;6.912;2023-11-19T05:50:21;9.95;;;2.78;;
15256;SDS011;7731;50.720;6.912;2023-11-19T05:52:51;9.55;;;2.67;;
15256;SDS011;7731;50.720;6.912;2023-11-19T05:55:22;13.18;;;3.55;;
15256;SDS011;7731;50.720;6.912;2023-11-19T05:57:54;13.02;;;3.58;;
15256;SDS011;7731;50.720;6.912;2023-11-19T06:00:27;15.88;;;3.65;;
15256;SDS011;7731;50.720;6.912;2023-11-19T06:03:02;10.50;;;2.88;;
15256;SDS011;7731;50.720;6.912;2023-11-19T06:05:32;12.65;;;3.22;;
15256;SDS011;7731;50.720;6.912;2023-11-19T06:08:03;11.95;;;3.28;;
15256;SDS011;7731;50.720;6.912;2023-11-19T06:10:33;12.02;;;3.10;;
15256;SDS011;7731;50.720;6.912;2023-11-19T06:13:03;11.43;;;3.42;;
15256;SDS011;7731;50.720;6.912;2023-11-19T06:15:39;10.88;;;2.92;;
15256;SDS011;7731;50.720;6.912;2023-11-19T06:18:10;9.95;;;2.60;;
15256;SDS011;7731;50.720;6.912;2023-11-19T06:20:41;11.27;;;2.50;;
15256;SDS011;7731;50.720;6.912;2023-11-19T06:23:12;12.23;;;3.22;;
15256;SDS011;7731;50.720;6.912;2023-11-19T06:25:43;12.35;;;3.17;;
15256;SDS011;7731;50.720;6.912;2023-11-19T06:28:13;8.38;;;2.58;;
15256;SDS011;7731;50.720;6.912;2023-11-19T06:30:46;9.35;;;2.50;;
15256;SDS011;7731;50.720;6.912;2023-11-19T06:33:17;10.25;;;3.00;;
15256;SDS011;7731;50.720;6.912;2023-11-19T06:35:47;10.80;;;2.90;;
15256;SDS011;7731;50.720;6.912;2023-11-19T06:38:17;11.15;;;2.67;;
15256;SDS011;7731;50.720;6.912;2023-11-19T06:40:47;11.98;;;3.20;;
15256;SDS011;7731;50.720;6.912;2023-11-19T06:43:20;15.40;;;3.35;;
15256;SDS011;7731;50.720;6.912;2023-11-19T06:45:53;12.45;;;3.15;;
15256;SDS011;7731;50.720;6.912;2023-11-19T06:48:26;11.70;;;3.47;;
15256;SDS011;7731;50.720;6.912;2023-11-19T06:50:56;12.13;;;3.80;;
15256;SDS011;7731;50.720;6.912;2023-11-19T06:53:26;14.00;;;3.92;;
15256;SDS011;7731;50.720;6.912;2023-11-19T06:55:57;11.00;;;3.80;;
15256;SDS011;7731;50.720;6.912;2023-11-19T06:58:27;11.50;;;3.15;;
15256;SDS011;7731;50.720;6.912;2023-11-19T07:01:00;15.57;;;3.25;;
15256;SDS011;7731;50.720;6.912;2023-11-19T07:03:32;10.70;;;3.78;;
15256;SDS011;7731;50.720;6.912;2023-11-19T07:06:05;18.48;;;3.58;;
15256;SDS011;7731;50.720;6.912;2023-11-19T07:08:36;10.52;;;3.08;;
15256;SDS011;7731;50.720;6.912;2023-11-19T07:11:07;13.95;;;3.03;;
15256;SDS011;7731;50.720;6.912;2023-11-19T07:13:38;10.73;;;3.45;;
15256;SDS011;7731;50.720;6.912;2023-11-19T07:16:14;17.45;;;4.30;;
15256;SDS011;7731;50.720;6.912;2023-11-19T07:18:44;13.68;;;3.60;;
15256;SDS011;7731;50.720;6.912;2023-11-19T07:21:16;17.92;;;4.15;;
15256;SDS011;7731;50.720;6.912;2023-11-19T07:23:47;11.25;;;3.67;;
15256;SDS011;7731;50.720;6.912;2023-11-19T07:26:18;14.35;;;4.05;;
15256;SDS011;7731;50.720;6.912;2023-11-19T07:28:48;15.60;;;3.60;;
15256;SDS011;7731;50.720;6.912;2023-11-19T07:31:21;19.65;;;4.10;;
15256;SDS011;7731;50.720;6.912;2023-11-19T07:33:52;11.77;;;3.75;;
15256;SDS011;7731;50.720;6.912;2023-11-19T07:36:23;14.35;;;3.88;;
15256;SDS011;7731;50.720;6.912;2023-11-19T07:38:53;11.85;;;3.08;;
15256;SDS011;7731;50.720;6.912;2023-11-19T07:41:25;11.73;;;2.92;;
15256;SDS011;7731;50.720;6.912;2023-11-19T07:43:57;14.70;;;3.65;;
15256;SDS011;7731;50.720;6.912;2023-11-19T07:46:30;8.65;;;3.35;;
15256;SDS011;7731;50.720;6.912;2023-11-19T07:49:01;13.73;;;2.90;;
15256;SDS011;7731;50.720;6.912;2023-11-19T07:51:31;13.38;;;3.42;;
15256;SDS011;7731;50.720;6.912;2023-11-19T07:54:01;10.38;;;2.72;;
15256;SDS011;7731;50.720;6.912;2023-11-19T07:56:32;11.02;;;2.72;;
15256;SDS011;7731;50.720;6.912;2023-11-19T07:59:03;11.88;;;2.88;;
15256;SDS011;7731;50.720;6.912;2023-11-19T08:01:36;12.45;;;2.67;;
15256;SDS011;7731;50.720;6.912;2023-11-19T08:04:07;13.60;;;2.88;;
15256;SDS011;7731;50.720;6.912;2023-11-19T08:06:38;11.52;;;3.05;;
15256;SDS011;7731;50.720;6.912;2023-11-19T08:09:08;9.13;;;2.80;;
15256;SDS011;7731;50.720;6.912;2023-11-19T08:11:40;11.50;;;2.40;;
15256;SDS011;7731;50.720;6.912;2023-11-19T08:14:11;12.43;;;3.60;;
15256;SDS011;7731;50.720;6.912;2023-11-19T08:16:44;14.85;;;2.58;;
15256;SDS011;7731;50.720;6.912;2023-11-19T08:19:14;14.18;;;3.42;;
15256;SDS011;7731;50.720;6.912;2023-11-19T08:21:45;13.35;;;3.45;;
15256;SDS011;7731;50.720;6.912;2023-11-19T08:24:15;11.88;;;2.78;;
15256;SDS011;7731;50.720;6.912;2023-11-19T08:26:45;8.82;;;2.38;;
15256;SDS011;7731;50.720;6.912;2023-11-19T08:29:28;13.48;;;3.10;;
15256;SDS011;7731;50.720;6.912;2023-11-19T08:32:02;12.48;;;3.33;;
15256;SDS011;7731;50.720;6.912;2023-11-19T08:34:34;13.13;;;2.80;;
15256;SDS011;7731;50.720;6.912;2023-11-19T08:37:04;10.60;;;2.95;;
15256;SDS011;7731;50.720;6.912;2023-11-19T08:39:34;10.73;;;2.85;;
15256;SDS011;7731;50.720;6.912;2023-11-19T08:42:05;13.50;;;3.05;;
15256;SDS011;7731;50.720;6.912;2023-11-19T08:44:36;12.55;;;3.15;;
15256;SDS011;7731;50.720;6.912;2023-11-19T08:47:12;10.88;;;2.55;;
15256;SDS011;7731;50.720;6.912;2023-11-19T08:49:44;13.38;;;3.00;;
15256;SDS011;7731;50.720;6.912;2023-11-19T08:52:24;15.20;;;3.15;;
15256;SDS011;7731;50.720;6.912;2023-11-19T08:54:59;17.52;;;3.58;;
15256;SDS011;7731;50.720;6.912;2023-11-19T08:57:32;13.13;;;3.05;;
15256;SDS011;7731;50.720;6.912;2023-11-19T09:00:02;11.85;;;3.05;;
15256;SDS011;7731;50.720;6.912;2023-11-19T09:02:37;14.93;;;3.10;;
15256;SDS011;7731;50.720;6.912;2023-11-19T09:05:09;13.88;;;3.25;;
15256;SDS011;7731;50.720;6.912;2023-11-19T09:07:42;12.75;;;2.88;;
15256;SDS011;7731;50.720;6.912;2023-11-19T09:10:14;12.20;;;3.03;;
15256;SDS011;7731;50.720;6.912;2023-11-19T09:12:45;10.05;;;2.75;;
15256;SDS011;7731;50.720;6.912;2023-11-19T09:15:15;17.27;;;3.05;;
15256;SDS011;7731;50.720;6.912;2023-11-19T09:17:48;7.93;;;2.88;;
15256;SDS011;7731;50.720;6.912;2023-11-19T09:20:19;12.50;;;3.65;;
15256;SDS011;7731;50.720;6.912;2023-11-19T09:22:51;12.48;;;3.15;;
15256;SDS011;7731;50.720;6.912;2023-11-19T09:25:21;9.07;;;3.13;;
15256;SDS011;7731;50.720;6.912;2023-11-19T09:27:52;16.42;;;3.63;;
15256;SDS011;7731;50.720;6.912;2023-11-19T09:30:22;8.25;;;2.67;;
15256;SDS011;7731;50.720;6.912;2023-11-19T09:32:55;10.88;;;3.17;;
15256;SDS011;7731;50.720;6.912;2023-11-19T09:35:26;13.45;;;3.05;;
15256;SDS011;7731;50.720;6.912;2023-11-19T09:37:57;15.10;;;3.50;;
15256;SDS011;7731;50.720;6.912;2023-11-19T09:40:30;11.15;;;3.03;;
15256;SDS011;7731;50.720;6.912;2023-11-19T09:43:00;10.50;;;3.45;;
15256;SDS011;7731;50.720;6.912;2023-11-19T09:45:31;11.07;;;2.83;;
15256;SDS011;7731;50.720;6.912;2023-11-19T09:48:22;11.23;;;2.97;;
15256;SDS011;7731;50.720;6.912;2023-11-19T09:50:56;12.70;;;3.28;;
15256;SDS011;7731;50.720;6.912;2023-11-19T09:53:28;7.75;;;3.03;;
15256;SDS011;7731;50.720;6.912;2023-11-19T09:55:58;11.52;;;3.08;;
15256;SDS011;7731;50.720;6.912;2023-11-19T09:58:32;7.93;;;2.65;;
15256;SDS011;7731;50.720;6.912;2023-11-19T10:01:04;10.75;;;3.50;;
15256;SDS011;7731;50.720;6.912;2023-11-19T10:03:44;11.07;;;2.63;;
15256;SDS011;7731;50.720;6.912;2023-11-19T10:06:18;15.32;;;3.40;;
15256;SDS011;7731;50.720;6.912;2023-11-19T10:08:49;16.80;;;3.38;;
15256;SDS011;7731;50.720;6.912;2023-11-19T10:11:20;13.63;;;3.30;;
15256;SDS011;7731;50.720;6.912;2023-11-19T10:13:53;13.27;;;3.08;;
15256;SDS011;7731;50.720;6.912;2023-11-19T10:16:28;10.60;;;2.97;;
15256;SDS011;7731;50.720;6.912;2023-11-19T10:19:02;11.40;;;3.47;;
15256;SDS011;7731;50.720;6.912;2023-11-19T10:21:33;11.35;;;3.17;;
15256;SDS011;7731;50.720;6.912;2023-11-19T10:24:04;11.45;;;2.92;;
15256;SDS011;7731;50.720;6.912;2023-11-19T10:26:57;10.02;;;3.20;;
15256;SDS011;7731;50.720;6.912;2023-11-19T10:29:27;11.95;;;3.28;;
15256;SDS011;7731;50.720;6.912;2023-11-19T10:31:59;12.32;;;2.75;;
15256;SDS011;7731;50.720;6.912;2023-11-19T10:34:52;11.75;;;3.33;;
15256;SDS011;7731;50.720;6.912;2023-11-19T10:37:34;9.57;;;2.88;;
15256;SDS011;7731;50.720;6.912;2023-11-19T10:40:05;15.38;;;3.45;;
15256;SDS011;7731;50.720;6.912;2023-11-19T10:42:37;12.85;;;3.42;;
15256;SDS011;7731;50.720;6.912;2023-11-19T10:45:17;15.15;;;3.33;;
15256;SDS011;7731;50.720;6.912;2023-11-19T10:47:52;11.10;;;2.30;;
15256;SDS011;7731;50.720;6.912;2023-11-19T10:50:27;8.23;;;2.55;;
15256;SDS011;7731;50.720;6.912;2023-11-19T10:52:59;10.02;;;2.72;;
15256;SDS011;7731;50.720;6.912;2023-11-19T10:55:30;7.40;;;2.88;;
15256;SDS011;7731;50.720;6.912;2023-11-19T10:58:06;10.80;;;3.15;;
15256;SDS011;7731;50.720;6.912;2023-11-19T11:00:38;14.15;;;3.00;;
15256;SDS011;7731;50.720;6.912;2023-11-19T11:03:17;9.00;;;2.88;;
15256;SDS011;7731;50.720;6.912;2023-11-19T11:05:52;11.55;;;2.85;;
15256;SDS011;7731;50.720;6.912;2023-11-19T11:08:22;18.90;;;3.58;;
15256;SDS011;7731;50.720;6.912;2023-11-19T11:10:53;15.52;;;3.67;;
15256;SDS011;7731;50.720;6.912;2023-11-19T11:13:29;14.02;;;3.85;;
15256;SDS011;7731;50.720;6.912;2023-11-19T11:16:01;13.23;;;2.90;;
15256;SDS011;7731;50.720;6.912;2023-11-19T11:18:35;12.60;;;2.70;;
15256;SDS011;7731;50.720;6.912;2023-11-19T11:21:09;9.45;;;3.05;;
15256;SDS011;7731;50.720;6.912;2023-11-19T11:30:27;14.30;;;3.97;;
15256;SDS011;7731;50.720;6.912;2023-11-19T11:33:20;11.10;;;3.00;;
15256;SDS011;7731;50.720;6.912;2023-11-19T11:36:11;12.18;;;3.63;;
15256;SDS011;7731;50.720;6.912;2023-11-19T11:38:49;9.23;;;2.95;;
15256;SDS011;7731;50.720;6.912;2023-11-19T11:41:20;11.98;;;3.47;;
15256;SDS011;7731;50.720;6.912;2023-11-19T11:43:56;9.93;;;3.08;;
15256;SDS011;7731;50.720;6.912;2023-11-19T11:49:25;18.38;;;3.67;;
15256;SDS011;7731;50.720;6.912;2023-11-19T11:52:03;12.02;;;3.60;;
15256;SDS011;7731;50.720;6.912;2023-11-19T11:54:34;12.27;;;3.38;;
15256;SDS011;7731;50.720;6.912;2023-11-19T11:57:09;10.35;;;3.10;;
15256;SDS011;7731;50.720;6.912;2023-11-19T11:59:43;9.95;;;3.47;;
15256;SDS011;7731;50.720;6.912;2023-11-19T12:02:18;13.13;;;3.55;;
15256;SDS011;7731;50.720;6.912;2023-11-19T12:04:54;11.98;;;3.42;;
15256;SDS011;7731;50.720;6.912;2023-11-19T12:07:27;15.18;;;3.58;;
15256;SDS011;7731;50.720;6.912;2023-11-19T12:10:05;11.40;;;3.22;;
15256;SDS011;7731;50.720;6.912;2023-11-19T12:12:39;12.65;;;3.35;;
15256;SDS011;7731;50.720;6.912;2023-11-19T12:15:10;13.73;;;3.10;;
15256;SDS011;7731;50.720;6.912;2023-11-19T12:17:50;12.27;;;3.50;;
15256;SDS011;7731;50.720;6.912;2023-11-19T12:20:21;12.25;;;3.50;;
15256;SDS011;7731;50.720;6.912;2023-11-19T12:23:00;13.20;;;3.13;;
15256;SDS011;7731;50.720;6.912;2023-11-19T12:25:38;11.23;;;3.20;;
15256;SDS011;7731;50.720;6.912;2023-11-19T12:28:11;13.60;;;3.30;;
15256;SDS011;7731;50.720;6.912;2023-11-19T12:30:44;14.63;;;3.72;;
15256;SDS011;7731;50.720;6.912;2023-11-19T12:33:15;10.38;;;3.30;;
15256;SDS011;7731;50.720;6.912;2023-11-19T12:35:47;9.77;;;3.38;;
15256;SDS011;7731;50.720;6.912;2023-11-19T12:38:21;11.75;;;3.40;;
15256;SDS011;7731;50.720;6.912;2023-11-19T12:41:02;12.82;;;3.40;;
15256;SDS011;7731;50.720;6.912;2023-11-19T12:43:33;9.73;;;3.15;;
15256;SDS011;7731;50.720;6.912;2023-11-19T12:46:16;11.30;;;3.60;;
15256;SDS011;7731;50.720;6.912;2023-11-19T12:48:49;12.48;;;3.30;;
15256;SDS011;7731;50.720;6.912;2023-11-19T12:51:20;13.98;;;3.88;;
15256;SDS011;7731;50.720;6.912;2023-11-19T12:53:53;9.77;;;3.17;;
15256;SDS011;7731;50.720;6.912;2023-11-19T12:56:24;11.40;;;3.05;;
15256;SDS011;7731;50.720;6.912;2023-11-19T12:58:56;10.27;;;2.92;;
15256;SDS011;7731;50.720;6.912;2023-11-19T13:01:26;11.32;;;3.17;;
15256;SDS011;7731;50.720;6.912;2023-11-19T13:03:57;10.07;;;3.15;;
15256;SDS011;7731;50.720;6.912;2023-11-19T13:06:30;12.57;;;2.90;;
15256;SDS011;7731;50.720;6.912;2023-11-19T13:09:05;10.75;;;3.25;;
15256;SDS011;7731;50.720;6.912;2023-11-19T13:11:42;12.32;;;3.65;;
15256;SDS011;7731;50.720;6.912;2023-11-19T13:14:12;13.95;;;3.35;;
15256;SDS011;7731;50.720;6.912;2023-11-19T13:16:43;13.60;;;3.67;;
15256;SDS011;7731;50.720;6.912;2023-11-19T13:19:15;13.57;;;3.45;;
15256;SDS011;7731;50.720;6.912;2023-11-19T13:21:46;14.25;;;3.72;;
15256;SDS011;7731;50.720;6.912;2023-11-19T13:24:19;13.63;;;3.45;;
15256;SDS011;7731;50.720;6.912;2023-11-19T13:26:50;9.35;;;2.92;;
15256;SDS011;7731;50.720;6.912;2023-11-19T13:29:22;13.43;;;3.35;;
15256;SDS011;7731;50.720;6.912;2023-11-19T13:31:55;12.35;;;3.35;;
15256;SDS011;7731;50.720;6.912;2023-11-19T13:34:27;11.20;;;3.17;;
15256;SDS011;7731;50.720;6.912;2023-11-19T13:37:06;11.20;;;3.40;;
15256;SDS011;7731;50.720;6.912;2023-11-19T13:39:41;13.07;;;3.65;;
15256;SDS011;7731;50.720;6.912;2023-11-19T13:42:11;10.07;;;3.63;;
15256;SDS011;7731;50.720;6.912;2023-11-19T13:44:42;10.73;;;2.58;;
15256;SDS011;7731;50.720;6.912;2023-11-19T13:47:12;13.55;;;3.17;;
15256;SDS011;7731;50.720;6.912;2023-11-19T13:49:43;14.52;;;3.25;;
15256;SDS011;7731;50.720;6.912;2023-11-19T13:52:14;12.20;;;2.85;;
15256;SDS011;7731;50.720;6.912;2023-11-19T13:54:47;14.55;;;2.90;;
15256;SDS011;7731;50.720;6.912;2023-11-19T13:57:19;12.52;;;3.10;;
15256;SDS011;7731;50.720;6.912;2023-11-19T13:59:49;12.18;;;3.15;;
15256;SDS011;7731;50.720;6.912;2023-11-19T14:02:23;10.23;;;2.88;;
15256;SDS011;7731;50.720;6.912;2023-11-19T14:04:53;10.75;;;2.65;;
15256;SDS011;7731;50.720;6.912;2023-11-19T14:07:23;11.98;;;2.75;;
15256;SDS011;7731;50.720;6.912;2023-11-19T14:09:56;7.70;;;2.15;;
15256;SDS011;7731;50.720;6.912;2023-11-19T14:12:27;8.65;;;2.70;;
15256;SDS011;7731;50.720;6.912;2023-11-19T14:14:57;10.30;;;2.22;;
15256;SDS011;7731;50.720;6.912;2023-11-19T14:17:27;10.88;;;2.63;;
15256;SDS011;7731;50.720;6.912;2023-11-19T14:19:58;9.27;;;2.80;;
15256;SDS011;7731;50.720;6.912;2023-11-19T14:22:29;9.77;;;2.42;;
15256;SDS011;7731;50.720;6.912;2023-11-19T14:25:02;9.40;;;2.38;;
15256;SDS011;7731;50.720;6.912;2023-11-19T14:27:36;9.77;;;2.20;;
15256;SDS011;7731;50.720;6.912;2023-11-19T14:30:08;7.38;;;2.50;;
15256;SDS011;7731;50.720;6.912;2023-11-19T14:32:43;7.32;;;1.90;;
15256;SDS011;7731;50.720;6.912;2023-11-19T14:35:16;7.75;;;2.10;;
15256;SDS011;7731;50.720;6.912;2023-11-19T14:37:46;8.55;;;2.55;;
15256;SDS011;7731;50.720;6.912;2023-11-19T14:40:19;5.97;;;2.42;;
15256;SDS011;7731;50.720;6.912;2023-11-19T14:43:08;7.88;;;2.60;;
15256;SDS011;7731;50.720;6.912;2023-11-19T14:45:39;11.07;;;3.10;;
15256;SDS011;7731;50.720;6.912;2023-11-19T14:48:15;11.02;;;2.90;;
15256;SDS011;7731;50.720;6.912;2023-11-19T14:50:46;10.50;;;2.95;;
15256;SDS011;7731;50.720;6.912;2023-11-19T14:53:18;7.93;;;2.58;;
15256;SDS011;7731;50.720;6.912;2023-11-19T14:55:52;12.15;;;2.95;;
15256;SDS011;7731;50.720;6.912;2023-11-19T14:58:22;11.65;;;3.05;;
15256;SDS011;7731;50.720;6.912;2023-11-19T15:00:52;11.10;;;2.75;;
15256;SDS011;7731;50.720;6.912;2023-11-19T15:03:23;7.38;;;3.05;;
15256;SDS011;7731;50.720;6.912;2023-11-19T15:05:56;10.32;;;3.67;;
15256;SDS011;7731;50.720;6.912;2023-11-19T15:08:27;9.80;;;3.30;;
15256;SDS011;7731;50.720;6.912;2023-11-19T15:11:00;9.52;;;3.03;;
15256;SDS011;7731;50.720;6.912;2023-11-19T15:13:32;12.25;;;3.47;;
15256;SDS011;7731;50.720;6.912;2023-11-19T15:16:04;11.43;;;3.00;;
15256;SDS011;7731;50.720;6.912;2023-11-19T15:18:37;11.32;;;3.00;;
15256;SDS011;7731;50.720;6.912;2023-11-19T15:21:07;13.30;;;3.75;;
15256;SDS011;7731;50.720;6.912;2023-11-19T15:23:40;12.05;;;2.88;;
15256;SDS011;7731;50.720;6.912;2023-11-19T15:26:13;15.90;;;3.45;;
15256;SDS011;7731;50.720;6.912;2023-11-19T15:28:43;10.65;;;3.20;;
15256;SDS011;7731;50.720;6.912;2023-11-19T15:31:13;15.95;;;3.92;;
15256;SDS011;7731;50.720;6.912;2023-11-19T15:33:44;11.50;;;3.20;;